Argusville, North Dakota
Current Conditions -  °F | °C
As of 6:53 PM on Saturday 25 Oct 2014 (Local Time) from KFAR Reporting Station
Clear Clear  
Wind Chill: 51°   Ceiling: Unl
Heat Index: 51°   Visibility: 10mi
Dew Point: 23°   Wind: 0mph
Humidity: 33%   Direction: NA
Pressure: 30.05"   Gusts: NA
Location:  47.05°N, 96.93°W
Report Text: KFAR 252353Z 00000KT 10SM CLR 11/M05 A3005 RMK AO2 SLP181 T01061050 10167 20094
Loading
Personal Weather Stations






























Interactive Weather Map
Tropical Storm Tracking
New forecast layout! Learn more

10-Day Weather Forecast

Advertisements
Track Severe Weather on mobile